Time;durP1;ratioP1;P1;durP2;ratioP2;P2;SDS_P1;SDS_P2;PMS_P1;PMS_P2;Temp;Humidity;BMP_temperature;BMP_pressure;BME280_temperature;BME280_humidity;BME280_pressure;Samples;Min_cycle;Max_cycle;Signal;HPM_P1;HPM_P2
2021/12/30 00:01:25;;;;;;;49.05;25.68;;;;;;;2.25;87.97;100278.40;1634294;86;21473;-71
2021/12/30 00:03:51;;;;;;;52.45;24.47;;;;;;;2.23;87.97;100277.94;1624988;86;20950;-71
2021/12/30 00:06:21;;;;;;;53.15;26.65;;;;;;;2.24;88.00;100283.48;1631685;86;26987;-71
2021/12/30 00:08:48;;;;;;;55.03;24.85;;;;;;;2.25;88.08;100286.05;1618224;86;21124;-71
2021/12/30 00:11:15;;;;;;;48.30;24.30;;;;;;;2.26;88.04;100285.63;1624569;86;20966;-71
2021/12/30 00:13:44;;;;;;;43.17;23.70;;;;;;;2.26;88.03;100288.19;1630471;86;21371;-71
2021/12/30 00:16:09;;;;;;;50.90;24.75;;;;;;;2.26;88.01;100284.36;1613849;86;21125;-71
2021/12/30 00:18:35;;;;;;;56.28;26.02;;;;;;;2.25;88.00;100287.33;1626108;86;22593;-71
2021/12/30 00:21:01;;;;;;;47.78;24.25;;;;;;;2.25;88.01;100290.30;1627141;86;21155;-71
2021/12/30 00:23:27;;;;;;;42.33;23.83;;;;;;;2.27;88.08;100284.80;1632292;86;21100;-71
2021/12/30 00:25:53;;;;;;;49.73;24.57;;;;;;;2.28;88.05;100287.36;1620376;86;21511;-71
2021/12/30 00:28:22;;;;;;;48.00;23.17;;;;;;;2.29;88.13;100277.59;1627002;86;21715;-71
2021/12/30 00:30:50;;;;;;;47.88;22.48;;;;;;;2.30;88.11;100282.28;1624610;87;20982;-71
2021/12/30 00:33:17;;;;;;;50.28;24.77;;;;;;;2.31;88.11;100290.38;1627030;86;20922;-71
2021/12/30 00:35:44;;;;;;;41.63;22.90;;;;;;;2.31;88.07;100306.95;1611737;87;21014;-71
2021/12/30 00:38:10;;;;;;;47.30;22.02;;;;;;;2.30;88.08;100292.48;1626580;86;20981;-71
2021/12/30 00:40:38;;;;;;;44.35;21.52;;;;;;;2.31;88.11;100288.68;1632153;86;20930;-71
2021/12/30 00:43:05;;;;;;;46.08;21.42;;;;;;;2.30;88.07;100284.41;1618242;86;21047;-71
2021/12/30 00:45:33;;;;;;;44.55;20.45;;;;;;;2.27;87.97;100278.42;1612532;86;20930;-71
2021/12/30 00:48:00;;;;;;;38.55;19.27;;;;;;;2.23;87.90;100277.94;1627300;86;20966;-71
2021/12/30 00:50:27;;;;;;;35.78;19.20;;;;;;;2.21;87.93;100278.34;1631805;86;20942;-71
2021/12/30 00:52:54;;;;;;;36.10;19.10;;;;;;;2.18;87.92;100276.61;1605436;88;20955;-71
2021/12/30 00:55:21;;;;;;;37.50;19.70;;;;;;;2.16;87.93;100273.18;1611341;86;20902;-71
2021/12/30 00:57:47;;;;;;;40.12;18.50;;;;;;;2.15;87.96;100275.30;1622789;86;20986;-71
2021/12/30 01:00:17;;;;;;;36.68;19.12;;;;;;;2.16;88.05;100276.16;1617877;86;20962;-71
2021/12/30 01:02:43;;;;;;;35.30;18.40;;;;;;;2.17;88.11;100271.07;1617659;86;20914;-71
2021/12/30 01:05:10;;;;;;;32.45;17.57;;;;;;;2.18;88.10;100278.30;1605452;86;20942;-71
2021/12/30 01:07:37;;;;;;;36.80;17.27;;;;;;;2.17;88.10;100286.38;1634132;86;20887;-71
2021/12/30 01:10:08;;;;;;;36.98;17.25;;;;;;;2.09;88.29;100261.61;1621347;86;20963;-71
2021/12/30 01:12:35;;;;;;;32.85;15.60;;;;;;;2.09;88.29;100261.61;1607370;86;21477;-71
2021/12/30 01:15:08;;;;;;;28.00;15.38;;;;;;;2.21;88.17;100283.02;1611888;86;21046;-71
2021/12/30 01:17:59;;;;;;;28.45;15.85;;;;;;;2.21;88.14;100287.27;1604913;88;21070;-71
2021/12/30 01:20:21;;;;;;;28.42;15.48;;;;;;;2.21;88.17;100274.09;1623403;86;21037;-71
2021/12/30 01:22:51;;;;;;;29.52;14.58;;;;;;;2.22;88.14;100281.33;1621380;86;21097;-72
2021/12/30 01:25:18;;;;;;;29.12;15.63;;;;;;;2.22;88.17;100287.70;1621062;87;21137;-71
2021/12/30 01:27:45;;;;;;;26.23;14.75;;;;;;;2.23;88.13;100291.97;1620703;86;21061;-71
2021/12/30 01:30:17;;;;;;;;;;;;;;;2.22;88.10;100293.66;1628287;85;22198;-71
2021/12/30 01:32:43;;;;;;;27.13;13.80;;;;;;;2.21;88.16;100285.58;1631954;86;20265;-71
2021/12/30 01:35:14;;;;;;;26.68;15.23;;;;;;;2.21;88.18;100291.95;1617947;86;21096;-71
2021/12/30 01:37:40;;;;;;;31.27;17.37;;;;;;;2.22;88.20;100304.28;1628893;86;20991;-71
2021/12/30 01:40:11;;;;;;;30.45;17.30;;;;;;;2.23;88.21;100311.95;1606706;86;21007;-71
2021/12/30 01:42:38;;;;;;;29.98;16.55;;;;;;;2.23;88.24;100318.34;1611865;86;20958;-71
2021/12/30 01:45:07;;;;;;;31.60;17.23;;;;;;;2.24;88.23;100329.40;1622402;88;20978;-71
2021/12/30 01:47:33;;;;;;;29.07;16.27;;;;;;;2.26;88.25;100337.51;1622422;86;21038;-71
2021/12/30 01:49:59;;;;;;;33.35;17.12;;;;;;;2.28;88.27;100340.08;1620537;87;21480;-71
2021/12/30 01:52:26;;;;;;;34.20;17.77;;;;;;;2.30;88.31;100335.86;1613907;88;20930;-71
2021/12/30 01:54:52;;;;;;;32.63;17.65;;;;;;;2.31;88.30;100333.33;1621816;86;20989;-71
2021/12/30 01:57:21;;;;;;;28.95;16.40;;;;;;;2.32;88.32;100325.25;1622126;86;21364;-71
2021/12/30 01:59:47;;;;;;;87.97;79.85;;;;;;;2.32;88.30;100317.17;1627769;86;21013;-71
2021/12/30 02:02:13;;;;;;;32.50;17.90;;;;;;;2.34;88.30;100317.20;1618660;86;21123;-71
2021/12/30 02:04:39;;;;;;;30.65;16.87;;;;;;;2.34;88.28;100321.02;1624140;86;21037;-71
2021/12/30 02:07:06;;;;;;;35.03;16.23;;;;;;;2.34;88.28;100328.68;1622730;86;20962;-71
2021/12/30 02:09:32;;;;;;;57.80;37.17;;;;;;;2.36;88.25;100329.97;1614571;87;21688;-71
2021/12/30 02:12:00;;;;;;;28.32;16.32;;;;;;;2.36;88.24;100325.73;1628114;86;21218;-71
2021/12/30 02:14:27;;;;;;;32.03;16.62;;;;;;;2.36;88.27;100333.80;1616584;86;21092;-72
2021/12/30 02:16:53;;;;;;;33.25;16.65;;;;;;;2.37;88.31;100330.41;1619785;86;20930;-71
2021/12/30 02:19:19;;;;;;;31.20;15.30;;;;;;;2.38;88.33;100339.36;1616458;88;20930;-71
2021/12/30 02:21:45;;;;;;;34.15;17.07;;;;;;;2.40;88.31;100343.20;1618431;86;20959;-71
2021/12/30 02:24:11;;;;;;;26.47;15.73;;;;;;;2.41;88.32;100343.23;1608346;88;22014;-71
2021/12/30 02:26:37;;;;;;;29.57;16.37;;;;;;;2.42;88.36;100333.46;1616427;88;20903;-71
2021/12/30 02:29:03;;;;;;;27.45;15.32;;;;;;;2.44;88.34;100338.58;1622217;87;20966;-71
2021/12/30 02:31:31;;;;;;;27.73;16.65;;;;;;;2.44;88.35;100322.00;1621484;86;20962;-71
2021/12/30 02:33:59;;;;;;;24.85;15.03;;;;;;;2.45;88.33;100330.95;1622500;86;20963;-71
2021/12/30 02:36:36;;;;;;;27.95;14.68;;;;;;;2.46;88.28;100340.73;1622529;88;21814;-71
2021/12/30 02:39:09;;;;;;;29.63;16.17;;;;;;;2.45;88.30;100332.64;1621622;86;21509;-71
2021/12/30 02:41:38;;;;;;;28.67;15.13;;;;;;;2.47;88.35;100339.48;1617466;86;21692;-71
2021/12/30 02:44:07;;;;;;;31.20;15.80;;;;;;;2.50;88.37;100338.66;1620712;86;21320;-72
2021/12/30 02:46:35;;;;;;;30.60;16.23;;;;;;;2.50;88.34;100331.00;1633490;86;20954;-72
2021/12/30 02:49:01;;;;;;;26.35;14.65;;;;;;;2.50;88.32;100331.86;1612743;86;21387;-71
2021/12/30 02:51:27;;;;;;;25.92;13.80;;;;;;;2.50;88.31;100328.03;1629422;86;20929;-71
2021/12/30 02:54:04;;;;;;;29.95;15.48;;;;;;;2.51;88.32;100330.16;1642083;86;20892;-71
2021/12/30 02:56:31;;;;;;;27.10;15.13;;;;;;;2.48;88.27;100330.98;1634999;85;20955;-71
2021/12/30 02:58:57;;;;;;;30.08;16.07;;;;;;;2.49;88.27;100341.63;1650421;86;21487;-71
2021/12/30 03:01:27;;;;;;;31.50;17.40;;;;;;;2.48;88.26;100332.68;1644710;86;20924;-71
2021/12/30 03:03:55;;;;;;;33.40;16.23;;;;;;;2.47;88.24;100337.34;1646655;85;20932;-71
2021/12/30 03:06:21;;;;;;;33.83;16.85;;;;;;;2.45;88.26;100336.05;1634138;85;21326;-71
2021/12/30 03:08:50;;;;;;;25.95;16.00;;;;;;;2.45;88.25;100332.22;1645481;85;20899;-71
2021/12/30 03:11:16;;;;;;;34.05;16.62;;;;;;;2.43;88.22;100329.22;1641934;86;21381;-71
2021/12/30 03:13:44;;;;;;;30.25;15.13;;;;;;;2.41;88.20;100334.30;1637712;86;20911;-71
2021/12/30 03:16:14;;;;;;;29.63;15.38;;;;;;;2.39;88.18;100332.56;1635290;85;21976;-71
2021/12/30 03:18:48;;;;;;;25.95;14.85;;;;;;;2.37;88.18;100333.82;1638012;87;20929;-71
2021/12/30 03:21:19;;;;;;;26.02;14.83;;;;;;;2.33;88.17;100326.55;1667762;85;20969;-71
2021/12/30 03:23:46;;;;;;;30.17;12.80;;;;;;;2.32;88.20;100338.01;1646203;84;20973;-71
2021/12/30 03:26:12;;;;;;;;;;;;;;;2.31;88.23;100333.74;1669726;84;20925;-71
2021/12/30 03:28:40;;;;;;;22.25;12.37;;;;;;;2.31;88.27;100341.39;1667953;85;21673;-71
2021/12/30 03:31:09;;;;;;;31.02;13.58;;;;;;;2.31;88.27;100340.98;1667180;84;20930;-71
2021/12/30 03:33:35;;;;;;;24.70;12.85;;;;;;;2.30;88.29;100344.37;1657065;84;20981;-71
2021/12/30 03:36:04;;;;;;;25.80;14.75;;;;;;;2.31;88.27;100356.70;1659177;84;20950;-71
2021/12/30 03:38:35;;;;;;;21.25;12.50;;;;;;;2.31;88.28;100353.73;1663578;84;20918;-71
2021/12/30 03:41:02;;;;;;;19.37;12.15;;;;;;;2.32;88.33;100352.04;1649424;84;20941;-71
2021/12/30 03:43:29;;;;;;;19.15;12.13;;;;;;;2.35;88.32;100349.95;1671003;84;20961;-72
2021/12/30 03:45:55;;;;;;;17.05;11.33;;;;;;;2.38;88.32;100335.53;1650779;85;20973;-71
2021/12/30 03:48:22;;;;;;;19.02;12.58;;;;;;;2.39;88.30;100340.22;1674284;84;26310;-71
2021/12/30 03:50:51;;;;;;;25.35;14.63;;;;;;;2.40;88.32;100344.06;1672995;84;21044;-71
2021/12/30 03:53:17;;;;;;;20.20;12.50;;;;;;;2.43;88.34;100336.87;1664865;83;20941;-71
2021/12/30 03:55:48;;;;;;;21.02;12.47;;;;;;;2.42;88.33;100338.98;1674707;84;21564;-71
2021/12/30 03:58:13;;;;;;;23.57;14.07;;;;;;;2.44;88.33;100347.09;1667161;85;20981;-71
2021/12/30 04:00:39;;;;;;;27.10;14.78;;;;;;;2.45;88.39;100347.95;1665831;84;20986;-71
2021/12/30 04:03:06;;;;;;;26.00;14.60;;;;;;;2.45;88.41;100354.33;1672285;84;21410;-71
2021/12/30 04:05:33;;;;;;;21.50;13.35;;;;;;;2.44;88.38;100356.02;1675765;84;20969;-71
2021/12/30 04:08:02;;;;;;;23.65;12.93;;;;;;;2.45;88.42;100360.71;1648372;84;21488;-71
2021/12/30 04:10:28;;;;;;;21.68;13.10;;;;;;;2.43;88.41;100355.59;1665790;86;20997;-71
2021/12/30 04:12:56;;;;;;;22.20;12.47;;;;;;;2.44;88.44;100356.02;1666022;84;21440;-71
2021/12/30 04:15:23;;;;;;;22.80;12.58;;;;;;;2.46;88.42;100359.88;1656543;85;21053;-71
2021/12/30 04:17:49;;;;;;;28.47;13.03;;;;;;;2.45;88.44;100366.67;1660060;85;21136;-71
2021/12/30 04:20:16;;;;;;;23.92;12.18;;;;;;;2.47;88.40;100372.66;1666145;86;21017;-71
2021/12/30 04:22:42;;;;;;;;;;;;;;;2.47;88.42;100374.34;1654615;84;21100;-71
2021/12/30 04:25:11;;;;;;;18.55;11.55;;;;;;;2.49;88.45;100374.80;1643057;86;20218;-71
2021/12/30 04:27:37;;;;;;;25.72;13.80;;;;;;;2.52;88.49;100382.92;1661053;84;21447;-71
2021/12/30 04:30:06;;;;;;;27.13;14.73;;;;;;;2.54;88.51;100385.08;1664735;86;20930;-71
2021/12/30 04:32:33;;;;;;;27.15;13.85;;;;;;;2.57;88.58;100396.59;1666050;86;20969;-70
2021/12/30 04:34:59;;;;;;;29.72;15.48;;;;;;;2.58;88.56;100395.34;1666189;84;20986;-70
2021/12/30 04:37:26;;;;;;;34.30;14.87;;;;;;;2.59;88.58;100388.12;1662660;84;21724;-71
2021/12/30 04:39:52;;;;;;;24.10;12.93;;;;;;;2.60;88.56;100380.05;1642197;87;21561;-70
2021/12/30 04:42:31;;;;;;;20.35;11.12;;;;;;;2.60;88.56;100384.70;1652147;84;21318;-71
2021/12/30 04:44:57;;;;;;;15.13;9.75;;;;;;;2.62;88.54;100389.82;1642929;87;21622;-71
2021/12/30 04:47:25;;;;;;;23.05;11.45;;;;;;;2.62;88.50;100384.72;1665773;85;21001;-71
2021/12/30 04:49:52;;;;;;;18.27;11.53;;;;;;;2.64;88.54;100381.77;1663026;84;20990;-71
2021/12/30 04:52:19;;;;;;;29.65;12.25;;;;;;;2.65;88.54;100385.61;1662932;85;21418;-71
2021/12/30 04:54:45;;;;;;;22.05;12.95;;;;;;;2.66;88.48;100387.33;1707039;81;253417;-71
2021/12/30 04:57:11;;;;;;;22.30;13.08;;;;;;;2.67;88.49;100392.02;1695113;82;20939;-71
2021/12/30 04:59:38;;;;;;;27.15;14.20;;;;;;;2.69;88.53;100395.86;1713939;82;20918;-71
2021/12/30 05:02:04;;;;;;;34.15;15.10;;;;;;;2.69;88.52;100394.17;1715010;82;20921;-71
2021/12/30 05:04:30;;;;;;;29.67;13.65;;;;;;;2.69;88.51;100385.23;1673738;84;21827;-71
2021/12/30 05:06:56;;;;;;;23.55;12.55;;;;;;;2.68;88.45;100384.80;1698737;82;20956;-71
2021/12/30 05:09:22;;;;;;;21.65;11.22;;;;;;;2.68;88.48;100381.38;1709145;82;21394;-71
2021/12/30 05:11:48;;;;;;;29.75;12.43;;;;;;;2.67;88.50;100380.53;1709715;82;21362;-71
2021/12/30 05:14:14;;;;;;;17.80;10.90;;;;;;;2.68;88.50;100376.28;1702293;82;21835;-71
2021/12/30 05:16:41;;;;;;;21.05;12.13;;;;;;;2.69;88.53;100381.41;1680834;84;20995;-71
2021/12/30 05:19:07;;;;;;;22.70;11.93;;;;;;;2.70;88.54;100383.12;1709692;82;20938;-71
2021/12/30 05:21:34;;;;;;;21.57;12.75;;;;;;;2.72;88.55;100379.31;1709334;82;21526;-71
2021/12/30 05:24:00;;;;;;;24.15;13.28;;;;;;;2.74;88.54;100371.25;1693635;83;21489;-71
2021/12/30 05:26:28;;;;;;;26.62;15.43;;;;;;;2.74;88.53;100369.55;1718220;82;21388;-71
2021/12/30 05:28:59;;;;;;;24.10;14.33;;;;;;;2.75;88.59;100371.27;1657666;84;21513;-71
2021/12/30 05:31:27;;;;;;;24.72;13.30;;;;;;;2.75;88.57;100371.27;1666729;84;20981;-71
2021/12/30 05:33:54;;;;;;;23.42;12.13;;;;;;;2.72;88.50;100371.65;1675059;84;21478;-71
2021/12/30 05:36:20;;;;;;;19.85;11.48;;;;;;;2.73;88.54;100379.75;1706746;82;26338;-71
2021/12/30 05:38:46;;;;;;;18.52;11.88;;;;;;;2.74;88.55;100382.73;1714463;82;21481;-71
2021/12/30 05:41:12;;;;;;;22.90;12.30;;;;;;;2.73;88.53;100384.85;1713440;82;21547;-71
2021/12/30 05:43:39;;;;;;;19.85;12.10;;;;;;;2.72;88.50;100390.80;1707004;82;21427;-71
2021/12/30 05:46:05;;;;;;;20.02;12.73;;;;;;;2.69;88.47;100396.72;1669384;84;20962;-71
2021/12/30 05:48:31;;;;;;;22.70;13.32;;;;;;;2.69;88.45;100395.45;1710386;82;21424;-71
2021/12/30 05:51:00;;;;;;;25.10;13.32;;;;;;;2.69;88.49;100400.55;1713496;82;21469;-71
2021/12/30 05:53:28;;;;;;;24.37;13.32;;;;;;;2.71;88.58;100392.91;1707547;82;20866;-71
2021/12/30 05:55:54;;;;;;;24.23;13.85;;;;;;;2.73;88.67;100392.09;1711995;82;21531;-71
2021/12/30 05:58:20;;;;;;;20.57;12.33;;;;;;;2.75;88.69;100389.14;1712680;82;21482;-71
2021/12/30 06:00:47;;;;;;;23.22;13.25;;;;;;;2.77;88.68;100387.88;1701864;82;21422;-71
2021/12/30 06:03:18;;;;;;;20.95;12.47;;;;;;;2.78;88.69;100386.63;1707502;82;20953;-71
2021/12/30 06:05:43;;;;;;;24.52;13.05;;;;;;;2.81;88.73;100387.08;1722100;82;20914;-71
2021/12/30 06:08:09;;;;;;;20.90;12.73;;;;;;;2.83;88.74;100390.09;1716785;82;20927;-71
2021/12/30 06:10:37;;;;;;;17.60;11.33;;;;;;;2.85;88.75;100393.94;1706876;82;21657;-71
2021/12/30 06:13:03;;;;;;;22.80;13.93;;;;;;;2.86;88.71;100396.92;1710483;82;21423;-71
2021/12/30 06:15:29;;;;;;;23.67;13.93;;;;;;;2.87;88.69;100403.33;1704503;82;20975;-71
2021/12/30 06:17:55;;;;;;;21.97;14.10;;;;;;;2.89;88.71;100410.59;1703349;82;21644;-71
2021/12/30 06:20:21;;;;;;;24.00;14.10;;;;;;;2.89;88.68;100400.80;1694021;82;20910;-71
2021/12/30 06:22:49;;;;;;;21.75;13.88;;;;;;;2.90;88.68;100398.67;1710373;82;20894;-71
2021/12/30 06:25:15;;;;;;;21.82;12.85;;;;;;;2.87;88.61;100386.73;1720533;82;20912;-71
2021/12/30 06:27:42;;;;;;;17.20;11.60;;;;;;;2.86;88.57;100394.38;1699091;82;21575;-71
2021/12/30 06:30:10;;;;;;;19.23;12.55;;;;;;;2.84;88.58;100388.39;1705102;82;21116;-71
2021/12/30 06:32:37;;;;;;;17.52;11.28;;;;;;;2.84;88.62;100384.56;1709918;82;21490;-71
2021/12/30 06:35:07;;;;;;;;;;;;;;;2.85;88.61;100393.94;1724199;82;21112;-71
2021/12/30 06:37:32;;;;;;;16.95;11.18;;;;;;;2.84;88.60;100396.91;1717361;82;20440;-71
2021/12/30 06:39:58;;;;;;;17.25;11.48;;;;;;;2.84;88.61;100396.05;1708055;82;21068;-71
2021/12/30 06:42:24;;;;;;;20.57;13.38;;;;;;;2.83;88.60;100400.72;1701596;82;20988;-71
2021/12/30 06:44:50;;;;;;;17.95;12.95;;;;;;;2.83;88.62;100400.30;1720723;82;21826;-71
2021/12/30 06:47:16;;;;;;;21.73;14.28;;;;;;;2.85;88.63;100407.98;1683458;84;21544;-71
2021/12/30 06:49:43;;;;;;;22.02;14.07;;;;;;;2.85;88.64;100400.31;1713142;82;21136;-71
2021/12/30 06:52:11;;;;;;;15.60;12.37;;;;;;;2.83;88.65;100397.75;1713227;82;21073;-71
2021/12/30 06:54:38;;;;;;;20.37;12.45;;;;;;;2.83;88.66;100406.68;1711905;82;21556;-71
2021/12/30 06:57:06;;;;;;;18.00;12.18;;;;;;;2.81;88.60;100408.78;1712949;82;21315;-70
2021/12/30 06:59:38;;;;;;;18.85;11.85;;;;;;;2.80;88.62;100407.92;1655302;84;21077;-71
2021/12/30 07:02:05;;;;;;;17.10;12.18;;;;;;;2.80;88.63;100413.45;1631158;86;21591;-71
2021/12/30 07:04:31;;;;;;;15.98;11.45;;;;;;;2.78;88.56;100415.98;1662059;84;20953;-71
2021/12/30 07:06:57;;;;;;;20.30;12.70;;;;;;;2.78;88.58;100423.64;1662496;84;21614;-71
2021/12/30 07:09:24;;;;;;;24.35;14.83;;;;;;;2.78;88.62;100424.92;1612476;87;21162;-71
2021/12/30 07:11:51;;;;;;;21.23;14.45;;;;;;;2.79;88.60;100433.44;1670561;84;26611;-71
2021/12/30 07:14:19;;;;;;;25.35;14.93;;;;;;;2.79;88.62;100432.16;1664301;84;21030;-70
2021/12/30 07:16:45;;;;;;;20.92;14.20;;;;;;;2.80;88.64;100435.15;1654443;84;255262;-71
2021/12/30 07:19:12;;;;;;;21.00;13.43;;;;;;;2.79;88.63;100439.81;1637035;86;21466;-71
2021/12/30 07:21:39;;;;;;;;;;;;;;;2.79;88.66;100437.27;1634667;86;21412;-71
2021/12/30 07:24:06;;;;;;;16.97;11.35;;;;;;;2.79;88.63;100439.81;1635833;86;20192;-71
2021/12/30 07:26:33;;;;;;;19.50;12.25;;;;;;;2.77;88.59;100441.08;1632960;86;20882;-71
2021/12/30 07:28:59;;;;;;;18.57;12.25;;;;;;;2.77;88.60;100443.63;1645414;86;21402;-71
2021/12/30 07:31:26;;;;;;;20.50;14.58;;;;;;;2.78;88.65;100444.06;1636327;86;20914;-71
2021/12/30 07:33:52;;;;;;;;;;;;;;;2.79;88.66;100446.20;1647204;86;20958;-71
2021/12/30 07:36:18;;;;;;;28.17;15.53;;;;;;;2.80;88.74;100443.67;1638116;86;20175;-71
2021/12/30 07:38:44;;;;;;;31.57;17.62;;;;;;;2.82;88.76;100448.80;1633676;86;20928;-71
2021/12/30 07:41:10;;;;;;;31.30;18.15;;;;;;;2.82;88.75;100448.80;1611640;87;20954;-71
2021/12/30 07:43:37;;;;;;;23.75;15.95;;;;;;;2.83;88.77;100445.41;1606771;87;20938;-71
2021/12/30 07:46:06;;;;;;;23.70;14.55;;;;;;;2.84;88.78;100449.25;1633315;86;21485;-71
2021/12/30 07:48:31;;;;;;;27.35;16.30;;;;;;;2.86;88.77;100452.68;1631071;86;21089;-71
2021/12/30 07:50:57;;;;;;;28.87;16.87;;;;;;;2.87;88.80;100455.67;1635266;86;21018;-71
2021/12/30 07:53:23;;;;;;;23.75;16.50;;;;;;;2.90;88.79;100454.86;1634698;85;21087;-71
2021/12/30 07:55:50;;;;;;;30.85;20.20;;;;;;;2.93;88.82;100458.72;1644081;86;20927;-71
2021/12/30 07:58:17;;;;;;;35.50;20.57;;;;;;;2.94;88.78;100462.58;1653793;85;21038;-71
2021/12/30 08:00:43;;;;;;;36.85;20.35;;;;;;;2.95;88.77;100463.02;1645804;87;20887;-71
2021/12/30 08:03:09;;;;;;;33.73;19.98;;;;;;;2.98;88.78;100465.61;1658975;85;20932;-71
2021/12/30 08:05:35;;;;;;;33.55;19.82;;;;;;;2.99;88.80;100471.58;1643964;85;21505;-71
2021/12/30 08:08:02;;;;;;;29.32;17.17;;;;;;;3.02;88.79;100470.75;1653877;85;21052;-71
2021/12/30 08:10:29;;;;;;;27.37;16.80;;;;;;;3.03;88.81;100468.64;1633929;85;21052;-71
2021/12/30 08:12:56;;;;;;;31.45;22.62;;;;;;;3.05;88.78;100469.09;1647224;85;21111;-71
2021/12/30 08:15:23;;;;;;;60.48;43.48;;;;;;;3.07;88.78;100466.14;1637182;85;21064;-71
2021/12/30 08:17:50;;;;;;;45.73;30.17;;;;;;;3.08;88.76;100452.95;1645971;85;20890;-71
2021/12/30 08:20:18;;;;;;;;;;;;;;;3.10;88.78;100452.12;1650994;85;20866;-72
2021/12/30 08:22:45;;;;;;;98.60;53.63;;;;;;;3.11;88.81;100455.12;1643740;85;20132;-71
2021/12/30 08:25:13;;;;;;;102.80;54.00;;;;;;;3.14;88.85;100455.54;1644849;85;20981;-71
2021/12/30 08:27:39;;;;;;;55.48;31.23;;;;;;;3.12;88.78;100452.97;1646586;85;20901;-71
2021/12/30 08:30:09;;;;;;;54.42;34.27;;;;;;;3.12;88.80;100454.25;1643291;85;21540;-71
2021/12/30 08:32:35;;;;;;;48.05;28.60;;;;;;;3.12;88.78;100454.25;1643465;85;20958;-71
2021/12/30 08:35:03;;;;;;;40.50;24.92;;;;;;;3.12;88.79;100461.91;1648254;85;20937;-71
2021/12/30 08:37:29;;;;;;;37.75;23.27;;;;;;;3.15;88.82;100468.33;1648696;85;20867;-71
2021/12/30 08:39:56;;;;;;;41.02;26.45;;;;;;;3.18;88.84;100473.48;1641979;85;21019;-71
2021/12/30 08:42:27;;;;;;;47.60;28.83;;;;;;;3.20;88.87;100473.08;1643272;85;21088;-71
2021/12/30 08:44:56;;;;;;;64.97;34.85;;;;;;;3.22;88.91;100467.56;1639262;85;21831;-71
2021/12/30 08:47:23;;;;;;;66.17;38.38;;;;;;;3.23;88.87;100461.61;1642176;85;21112;-71
2021/12/30 08:49:50;;;;;;;61.48;38.10;;;;;;;3.25;88.91;100459.08;1647140;85;21120;-71
2021/12/30 08:52:20;;;;;;;67.72;42.10;;;;;;;3.27;88.89;100460.81;1642519;85;21105;-73
2021/12/30 08:54:47;;;;;;;53.35;34.75;;;;;;;3.29;88.91;100463.38;1631826;85;21092;-73
2021/12/30 08:57:15;;;;;;;72.35;44.83;;;;;;;3.31;88.88;100461.70;1645511;85;21713;-73
2021/12/30 08:59:41;;;;;;;36.30;23.10;;;;;;;3.32;88.85;100471.94;1643539;85;20882;-73
2021/12/30 09:02:08;;;;;;;42.58;31.00;;;;;;;3.33;88.87;100464.70;1644150;85;20882;-73
2021/12/30 09:04:34;;;;;;;56.20;38.92;;;;;;;3.37;88.91;100468.58;1646137;85;20922;-74
2021/12/30 09:07:02;;;;;;;79.50;55.50;;;;;;;3.39;88.89;100470.31;1644035;85;20918;-74
2021/12/30 09:09:28;;;;;;;44.20;28.57;;;;;;;3.42;88.93;100466.93;1621008;87;20974;-74
2021/12/30 09:11:55;;;;;;;89.60;59.42;;;;;;;3.43;88.91;100471.20;1642052;85;20886;-74
2021/12/30 09:14:21;;;;;;;93.35;59.48;;;;;;;3.44;88.94;100458.44;1641607;85;20906;-73
2021/12/30 09:16:48;;;;;;;102.38;64.32;;;;;;;3.46;88.96;100458.45;1641135;85;20917;-73
2021/12/30 09:19:16;;;;;;;77.30;48.35;;;;;;;3.47;88.89;100461.02;1644217;85;20921;-74
2021/12/30 09:21:43;;;;;;;38.98;24.75;;;;;;;3.49;88.92;100473.40;1640544;85;20946;-74
2021/12/30 09:24:11;;;;;;;51.55;36.48;;;;;;;3.53;88.92;100468.75;1640046;85;20938;-74
2021/12/30 09:26:39;;;;;;;45.63;28.95;;;;;;;3.56;88.96;100469.20;1648233;85;20862;-74
2021/12/30 09:29:10;;;;;;;43.45;27.85;;;;;;;3.57;89.00;100471.78;1645148;85;20981;-74
2021/12/30 09:31:34;;;;;;;48.87;33.08;;;;;;;3.59;89.01;100471.80;1652815;85;20918;-74
2021/12/30 09:34:00;;;;;;;35.60;24.47;;;;;;;3.60;88.98;100470.53;1641497;85;21553;-74
2021/12/30 09:36:28;;;;;;;67.80;46.03;;;;;;;3.61;88.96;100468.83;1644405;85;20878;-74
2021/12/30 09:38:54;;;;;;;49.48;32.48;;;;;;;3.64;89.06;100470.97;1640789;85;20918;-76
2021/12/30 09:41:20;;;;;;;36.13;22.50;;;;;;;3.69;89.09;100467.59;1642982;85;20909;-76
2021/12/30 09:43:46;;;;;;;35.73;23.30;;;;;;;3.71;89.09;100465.49;1654594;85;20953;-76
2021/12/30 09:46:13;;;;;;;29.53;20.30;;;;;;;3.75;89.06;100474.05;1640429;85;20870;-76
2021/12/30 09:48:39;;;;;;;34.75;22.85;;;;;;;3.77;89.08;100486.01;1633527;85;20960;-76
2021/12/30 09:51:07;;;;;;;30.25;20.15;;;;;;;3.80;89.02;100483.48;1635094;85;21051;-75
2021/12/30 09:53:33;;;;;;;28.67;19.85;;;;;;;3.83;89.06;100481.37;1647389;85;20921;-76
2021/12/30 09:55:59;;;;;;;23.85;16.40;;;;;;;3.85;89.06;100479.69;1643128;85;20917;-76
2021/12/30 09:58:27;;;;;;;20.00;14.60;;;;;;;3.86;89.09;100482.26;1649607;85;21364;-75
2021/12/30 10:00:55;;;;;;;19.02;13.22;;;;;;;3.87;89.09;100480.56;1642441;85;20971;-75
2021/12/30 10:03:21;;;;;;;22.80;14.45;;;;;;;3.88;89.07;100480.57;1653212;85;20907;-76
2021/12/30 10:05:48;;;;;;;18.70;13.22;;;;;;;3.89;89.04;100477.17;1645117;85;20867;-75
2021/12/30 10:08:24;;;;;;;19.70;13.40;;;;;;;3.90;89.11;100475.47;1640339;85;21508;-75
2021/12/30 10:10:54;;;;;;;;;;;;;;;3.92;89.10;100472.50;1643887;85;20917;-75
2021/12/30 10:13:29;;;;;;;19.50;13.15;;;;;;;3.92;89.09;100481.03;1648861;85;20120;-75
2021/12/30 10:16:04;;;;;;;21.23;15.03;;;;;;;3.93;89.08;100474.22;1641691;85;20949;-76
2021/12/30 10:18:53;;;;;;;26.17;16.35;;;;;;;3.94;89.09;100464.00;1639132;85;20940;-72
2021/12/30 10:21:37;;;;;;;34.38;17.85;;;;;;;3.94;89.09;100457.61;1650326;85;21005;-72
2021/12/30 10:24:08;;;;;;;25.80;16.23;;;;;;;3.93;89.08;100449.50;1648576;85;20898;-73
2021/12/30 10:26:50;;;;;;;25.72;15.70;;;;;;;3.93;89.09;100447.36;1643930;85;20949;-72
2021/12/30 10:29:17;;;;;;;20.10;13.25;;;;;;;3.92;89.09;100449.06;1643061;85;20953;-73
2021/12/30 10:31:43;;;;;;;19.87;13.93;;;;;;;3.93;89.09;100453.75;1648772;85;20909;-71
2021/12/30 10:34:12;;;;;;;25.12;14.00;;;;;;;3.96;89.13;100464.87;1646447;85;20866;-71
2021/12/30 10:36:45;;;;;;;21.62;13.25;;;;;;;3.99;89.17;100461.06;1624507;85;20966;-75
2021/12/30 10:39:30;;;;;;;21.75;12.10;;;;;;;4.04;89.16;100464.08;1646323;85;20944;-75
2021/12/30 10:42:10;;;;;;;20.90;13.20;;;;;;;4.05;89.14;100465.37;1650437;85;20974;-75
2021/12/30 10:44:56;;;;;;;18.45;13.28;;;;;;;4.08;89.12;100465.81;1644158;85;20921;-74
2021/12/30 10:47:27;;;;;;;21.05;14.05;;;;;;;4.09;89.12;100466.25;1641544;85;21485;-77
2021/12/30 10:50:11;;;;;;;28.17;15.08;;;;;;;4.10;89.16;100481.62;1643500;85;20965;-75
2021/12/30 10:52:50;;;;;;;21.30;15.65;;;;;;;4.12;89.17;100489.30;1640629;85;20914;-75
2021/12/30 10:55:17;;;;;;;26.93;15.15;;;;;;;4.12;89.17;100491.86;1618339;85;20919;-75
2021/12/30 10:57:43;;;;;;;18.12;13.58;;;;;;;4.13;89.13;100483.34;1614363;87;20926;-75
2021/12/30 11:00:11;;;;;;;22.25;12.75;;;;;;;4.14;89.12;100474.82;1611717;87;20994;-75
2021/12/30 11:02:37;;;;;;;22.87;13.00;;;;;;;4.14;89.18;100470.56;1594065;87;21145;-75
2021/12/30 11:05:11;;;;;;;20.35;12.23;;;;;;;4.16;89.15;100476.97;1601998;87;21037;-75
2021/12/30 11:07:46;;;;;;;20.85;13.58;;;;;;;4.17;89.15;100485.91;1613151;87;21101;-75
2021/12/30 11:10:16;;;;;;;23.85;14.68;;;;;;;4.19;89.17;100493.17;1620112;87;21053;-75
2021/12/30 11:12:46;;;;;;;21.73;14.58;;;;;;;4.22;89.23;100484.66;1615279;87;21015;-75
2021/12/30 11:15:26;;;;;;;23.18;12.18;;;;;;;4.24;89.30;100499.61;1606774;88;20901;-75
2021/12/30 11:18:18;;;;;;;20.32;12.10;;;;;;;4.24;89.27;100497.91;1608516;87;20968;-74
2021/12/30 11:20:48;;;;;;;14.35;10.68;;;;;;;4.24;89.23;100495.34;1595326;88;20917;-77
2021/12/30 11:23:17;;;;;;;24.15;11.50;;;;;;;4.25;89.24;100494.50;1615421;88;21087;-74